Mount Bethel, Pennsylvania
Current Conditions -  °F | °C
As of 1:53 AM on Sunday 23 Nov 2014 (Local Time) from KMPO Reporting Station
Broken Clouds Broken Clouds  
Wind Chill: 33°   Ceiling: 8500
Heat Index: 40°   Visibility: 10mi
Dew Point: 16°   Wind: 12mph
Humidity: 38%   Direction: 260°W
Pressure: 30.11"   Gusts: NA
Location:  40.9°N, 75.11°W
Report Text: KMPO 230653Z AUTO 26010KT 10SM BKN085 04/M09 A3011 RMK AO2 SLP210 T00441089
Loading
Personal Weather Stations






























Interactive Weather Map New forecast layout! Learn more

10-Day Weather Forecast

Advertisements
Track Severe Weather on mobile